Time;durP1;ratioP1;P1;durP2;ratioP2;P2;SDS_P1;SDS_P2;PMS_P1;PMS_P2;Temp;Humidity;BMP_temperature;BMP_pressure;BME280_temperature;BME280_humidity;BME280_pressure;Samples;Min_cycle;Max_cycle;Signal;HPM_P1;HPM_P2
2022/11/20 09:36:23;;;;;;;;;;;;;;;10.94;59.51;96785.59;4196079;27;10300;-67
2022/11/20 09:38:26;;;;;;;;;;;;;;;11.25;59.15;96792.25;4204753;28;5709;-65
2022/11/20 09:40:29;;;;;;;;;;;;;;;11.47;58.85;96791.13;4202278;28;5847;-66
2022/11/20 09:42:43;;;;;;;;;;;;;;;11.64;58.44;96792.38;4201849;28;5805;-66
2022/11/20 09:45:16;;;;;;;;;;;;;;;11.79;58.25;96794.06;4198749;28;5711;-67
2022/11/20 09:47:32;;;;;;;;;;;;;;;11.85;57.66;96796.75;4190985;28;5911;-66
2022/11/20 09:49:50;;;;;;;;;;;;;;;11.96;57.43;96790.03;4196032;28;5905;-66
2022/11/20 09:51:58;;;;;;;;;;;;;;;12.06;57.23;96800.25;4204396;28;5697;-66
2022/11/20 09:54:14;;;;;;;;;;;;;;;12.10;56.90;96794.34;4193391;28;5862;-67
2022/11/20 09:56:20;;;;;;;;;;;;;;;12.14;57.02;96792.13;4206983;28;5697;-66
2022/11/20 09:58:32;;;;;;;;;;;;;;;12.18;56.59;96794.16;4205069;28;5827;-66
2022/11/20 10:00:37;;;;;;;;;;;;;;;12.25;56.70;96799.47;4200207;28;5777;-66
2022/11/20 10:02:45;;;;;;;;;;;;;;;12.27;56.30;96786.00;4204871;28;5722;-65
2022/11/20 10:05:00;;;;;;;;;;;;;;;12.31;56.14;96792.50;4198841;28;5733;-65
2022/11/20 10:07:09;;;;;;;;;;;;;;;12.32;56.09;96794.16;4200443;28;5711;-66
2022/11/20 10:09:35;;;;;;;;;;;;;;;12.31;55.94;96789.88;4196010;28;5868;-66
2022/11/20 10:11:47;;;;;;;;;;;;;;;12.33;55.55;96785.16;4201025;28;5770;-66
2022/11/20 10:14:04;;;;;;;;;;;;;;;12.37;55.60;96794.38;4199755;28;5829;-66
2022/11/20 10:16:23;;;;;;;;;;;;;;;12.39;55.46;96803.75;4202655;28;5674;-67
2022/11/20 10:18:43;;;;;;;;;;;;;;;12.40;55.42;96791.28;4196553;28;5873;-67
2022/11/20 10:20:55;;;;;;;;;;;;;;;12.40;55.00;96786.81;4206974;28;5834;-67
2022/11/20 10:23:17;;;;;;;;;;;;;;;12.44;55.22;96792.50;4200715;28;5155;-67
2022/11/20 10:25:38;;;;;;;;;;;;;;;12.44;54.70;96787.22;4190465;28;7855;-68
2022/11/20 10:28:07;;;;;;;;;;;;;;;12.45;54.48;96783.53;4196157;28;5794;-68
2022/11/20 10:30:13;;;;;;;;;;;;;;;12.44;54.59;96776.59;4192068;28;5928;-66
2022/11/20 10:32:20;;;;;;;;;;;;;;;12.47;54.68;96781.50;4195788;28;5715;-67
2022/11/20 10:34:27;;;;;;;;;;;;;;;12.42;54.27;96768.03;4202095;28;5701;-65
2022/11/20 10:36:36;;;;;;;;;;;;;;;12.52;54.29;96790.47;4187294;28;5794;-66
2022/11/20 10:38:43;;;;;;;;;;;;;;;12.54;54.20;96782.31;4185755;28;5849;-67
2022/11/20 10:40:51;;;;;;;;;;;;;;;12.56;53.99;96784.75;4180614;28;5865;-66
2022/11/20 10:42:57;;;;;;;;;;;;;;;12.55;54.15;96783.94;4184141;28;5715;-66
2022/11/20 10:45:15;;;;;;;;;;;;;;;12.55;53.80;96783.94;4186281;28;5715;-66
2022/11/20 10:47:20;;;;;;;;;;;;;;;12.56;53.72;96788.22;4177257;28;5722;-66
2022/11/20 10:49:23;;;;;;;;;;;;;;;12.58;53.59;96782.72;4185280;28;5801;-65
2022/11/20 10:51:38;;;;;;;;;;;;;;;12.56;53.71;96780.25;4185724;28;6363;-65
2022/11/20 10:53:51;;;;;;;;;;;;;;;12.58;53.69;96777.44;4185665;28;5702;-65
2022/11/20 10:56:00;;;;;;;;;;;;;;;12.61;53.51;96777.81;4183608;28;5703;-66
2022/11/20 10:58:11;;;;;;;;;;;;;;;12.62;53.54;96778.63;4181298;28;5705;-67
2022/11/20 11:00:16;;;;;;;;;;;;;;;12.63;53.17;96777.63;4188535;28;5842;-66
2022/11/20 11:02:21;;;;;;;;;;;;;;;12.66;53.24;96764.75;4181517;28;5854;-66
2022/11/20 11:04:37;;;;;;;;;;;;;;;12.69;53.10;96769.66;4188322;28;5821;-66
2022/11/20 11:06:48;;;;;;;;;;;;;;;12.71;53.11;96757.00;4180163;28;5774;-66
2022/11/20 11:08:56;;;;;;;;;;;;;;;12.73;52.79;96759.44;4185449;28;5809;-65
2022/11/20 11:11:03;;;;;;;;;;;;;;;12.74;52.95;96750.47;4185358;28;5703;-66
2022/11/20 11:13:06;;;;;;;;;;;;;;;12.74;52.44;96751.28;4185497;28;5794;-66
2022/11/20 11:15:15;;;;;;;;;;;;;;;12.73;52.50;96754.94;4185417;28;5735;-65
2022/11/20 11:17:26;;;;;;;;;;;;;;;12.73;52.46;96749.66;4185433;28;5711;-66
2022/11/20 11:19:29;;;;;;;;;;;;;;;12.73;52.41;96744.34;4185345;28;5771;-66
2022/11/20 11:21:32;;;;;;;;;;;;;;;12.75;52.46;96730.88;4185597;28;5719;-65
2022/11/20 11:23:37;;;;;;;;;;;;;;;12.74;52.11;96739.84;4185416;28;5740;-66
2022/11/20 11:25:41;;;;;;;;;;;;;;;12.73;51.91;96733.72;4183780;28;5889;-65
2022/11/20 11:27:47;;;;;;;;;;;;;;;12.73;51.95;96731.06;4185022;28;5731;-66
2022/11/20 11:29:50;;;;;;;;;;;;;;;12.74;52.07;96722.09;4183971;28;5719;-65
2022/11/20 11:32:05;;;;;;;;;;;;;;;12.74;51.87;96727.41;4184706;28;5833;-65
2022/11/20 11:34:12;;;;;;;;;;;;;;;12.76;51.69;96712.09;4185949;28;5731;-66
2022/11/20 11:36:20;;;;;;;;;;;;;;;12.76;51.75;96712.09;4183177;28;5726;-65
2022/11/20 11:38:30;;;;;;;;;;;;;;;12.75;51.86;96701.69;4200123;28;5784;-67
2022/11/20 11:40:35;;;;;;;;;;;;;;;12.72;51.53;96689.66;4185255;28;6392;-65
2022/11/20 11:42:45;;;;;;;;;;;;;;;12.74;51.38;96684.16;4190035;28;6122;-67
2022/11/20 11:45:06;;;;;;;;;;;;;;;12.75;51.36;96683.94;4185036;28;5722;-66
2022/11/20 11:47:19;;;;;;;;;;;;;;;12.74;51.51;96674.34;4184780;28;5710;-65
2022/11/20 11:49:22;;;;;;;;;;;;;;;12.76;51.25;96669.66;4180700;28;5691;-66
2022/11/20 11:51:30;;;;;;;;;;;;;;;12.75;51.21;96673.31;4194620;28;5840;-66
2022/11/20 11:53:40;;;;;;;;;;;;;;;12.77;51.13;96668.63;4184852;28;5814;-66
2022/11/20 11:55:46;;;;;;;;;;;;;;;12.77;51.30;96660.66;4193878;28;5703;-66
2022/11/20 11:57:56;;;;;;;;;;;;;;;12.77;50.91;96650.06;4184786;28;5810;-67
2022/11/20 12:00:05;;;;;;;;;;;;;;;12.77;50.98;96642.09;4184815;28;5706;-67
2022/11/20 12:02:30;;;;;;;;;;;;;;;12.79;51.00;96641.88;4183930;28;5798;-66
2022/11/20 12:04:44;;;;;;;;;;;;;;;12.80;50.68;96639.03;4178610;28;5711;-65
2022/11/20 12:06:52;;;;;;;;;;;;;;;12.77;50.36;96633.31;4184482;28;5806;-66
2022/11/20 12:09:00;;;;;;;;;;;;;;;12.76;50.54;96643.13;4184452;28;5723;-66
2022/11/20 12:11:07;;;;;;;;;;;;;;;12.77;50.59;96634.13;4184287;28;5806;-66
2022/11/20 12:13:22;;;;;;;;;;;;;;;12.78;50.58;96625.16;4184444;28;5861;-66
2022/11/20 12:15:30;;;;;;;;;;;;;;;12.79;50.24;96621.47;4184231;28;5714;-66
2022/11/20 12:17:33;;;;;;;;;;;;;;;12.81;50.54;96615.97;4184261;28;5716;-65
2022/11/20 12:19:36;;;;;;;;;;;;;;;12.79;50.43;96605.56;4184315;28;5889;-66
2022/11/20 12:21:49;;;;;;;;;;;;;;;12.78;50.26;96609.22;4184259;28;5722;-65
2022/11/20 12:24:06;;;;;;;;;;;;;;;12.80;49.81;96607.22;4184150;28;5789;-66
2022/11/20 12:26:20;;;;;;;;;;;;;;;12.79;49.92;96605.56;4184282;28;5997;-65
2022/11/20 12:28:45;;;;;;;;;;;;;;;12.82;49.65;96612.28;4167744;28;6940;-65
2022/11/20 12:31:00;;;;;;;;;;;;;;;12.86;49.50;96610.03;4172227;28;5859;-65
2022/11/20 12:33:24;;;;;;;;;;;;;;;12.83;49.32;96616.56;4181979;28;5739;-66
2022/11/20 12:35:45;;;;;;;;;;;;;;;12.76;49.67;96619.25;4181066;28;5895;-66
2022/11/20 12:37:58;;;;;;;;;;;;;;;12.75;49.69;96622.94;4200744;28;6754;-65
2022/11/20 12:40:12;;;;;;;;;;;;;;;12.75;49.45;96620.28;4197302;28;5763;-66
2022/11/20 12:45:10;;;;;;;;;;;;;;;12.80;49.36;96585.97;4146744;28;5925;-66
2022/11/20 12:47:24;;;;;;;;;;;;;;;12.78;49.27;96582.69;4144434;28;5838;-66
2022/11/20 12:49:38;;;;;;;;;;;;;;;12.79;49.16;96588.81;4142456;28;5781;-66
2022/11/20 12:52:11;;;;;;;;;;;;;;;12.78;48.88;96590.66;4149281;28;5943;-66
2022/11/20 12:54:35;;;;;;;;;;;;;;;12.80;49.05;96593.94;4141364;28;5838;-66
2022/11/20 12:56:44;;;;;;;;;;;;;;;12.83;48.90;96595.34;4143548;28;6622;-65
2022/11/20 12:59:01;;;;;;;;;;;;;;;12.82;48.73;96597.19;4149123;28;5773;-66
2022/11/20 13:01:39;;;;;;;;;;;;;;;12.85;48.70;96597.78;4129454;28;6678;-66
2022/11/20 13:03:47;;;;;;;;;;;;;;;12.83;48.59;96601.47;4148772;28;7003;-65
2022/11/20 13:05:57;;;;;;;;;;;;;;;12.83;48.64;96606.78;4149057;28;5789;-66
2022/11/20 13:08:02;;;;;;;;;;;;;;;12.86;48.57;96602.88;4144034;28;5861;-66
2022/11/20 13:10:17;;;;;;;;;;;;;;;12.88;48.37;96605.31;4133527;28;5924;-66
2022/11/20 13:12:25;;;;;;;;;;;;;;;12.90;48.46;96613.88;4141189;28;5785;-66
2022/11/20 13:14:37;;;;;;;;;;;;;;;12.89;48.46;96610.41;4146302;28;5844;-66
2022/11/20 13:16:49;;;;;;;;;;;;;;;12.92;48.31;96611.84;4142931;28;5807;-66
2022/11/20 13:18:52;;;;;;;;;;;;;;;12.94;48.23;96607.13;4139010;28;5953;-66
2022/11/20 13:20:55;;;;;;;;;;;;;;;12.93;48.43;96592.25;4149739;28;5784;-66
2022/11/20 13:22:58;;;;;;;;;;;;;;;12.93;48.28;96589.59;4183694;28;5707;-66
2022/11/20 13:25:01;;;;;;;;;;;;;;;12.96;47.91;96594.47;4183614;28;5727;-66
2022/11/20 13:27:22;;;;;;;;;;;;;;;12.97;47.99;96596.09;4183389;28;5715;-66
2022/11/20 13:29:26;;;;;;;;;;;;;;;12.98;48.23;96595.06;4183602;28;5715;-66
2022/11/20 13:31:32;;;;;;;;;;;;;;;12.99;48.00;96599.34;4186869;28;5821;-66
2022/11/20 13:33:38;;;;;;;;;;;;;;;13.00;47.94;96587.69;4190649;28;5888;-66
2022/11/20 13:35:43;;;;;;;;;;;;;;;13.02;47.70;96588.28;4183366;28;5918;-66
2022/11/20 13:37:46;;;;;;;;;;;;;;;13.01;47.62;96579.50;4177753;28;5801;-66
2022/11/20 13:39:48;;;;;;;;;;;;;;;13.03;47.49;96574.84;4183297;28;5801;-66
2022/11/20 13:41:55;;;;;;;;;;;;;;;13.03;47.68;96566.06;4184334;28;5870;-66
2022/11/20 13:44:05;;;;;;;;;;;;;;;13.04;47.41;96559.72;4199599;28;5836;-66
2022/11/20 13:46:11;;;;;;;;;;;;;;;13.03;47.30;96558.91;4199645;28;5705;-66
2022/11/20 13:48:22;;;;;;;;;;;;;;;13.04;47.32;96560.53;4200127;28;6370;-66
2022/11/20 13:50:41;;;;;;;;;;;;;;;13.05;47.34;96559.50;4171950;28;5813;-66
2022/11/20 13:52:55;;;;;;;;;;;;;;;13.04;47.16;96557.88;4184430;28;6383;-66
2022/11/20 13:55:13;;;;;;;;;;;;;;;13.04;47.29;96554.41;4185896;28;5997;-66
2022/11/20 13:57:36;;;;;;;;;;;;;;;13.05;47.32;96551.53;4188406;28;5731;-66
2022/11/20 13:59:53;;;;;;;;;;;;;;;13.06;47.25;96558.47;4179339;28;5594;-66
2022/11/20 14:01:56;;;;;;;;;;;;;;;13.08;47.08;96553.75;4195355;28;7738;-66
2022/11/20 14:04:00;;;;;;;;;;;;;;;13.07;47.13;96560.09;4195342;28;5785;-66
2022/11/20 14:06:21;;;;;;;;;;;;;;;13.06;47.04;96555.81;4180311;28;5817;-66
2022/11/20 14:08:29;;;;;;;;;;;;;;;13.06;46.73;96550.50;4181648;28;5777;-66
2022/11/20 14:10:32;;;;;;;;;;;;;;;13.07;46.85;96556.63;4182869;28;5798;-66
2022/11/20 14:12:36;;;;;;;;;;;;;;;13.05;46.87;96553.38;4185300;28;5876;-67
2022/11/20 14:14:49;;;;;;;;;;;;;;;13.02;46.65;96549.31;4186440;28;5805;-66
2022/11/20 14:16:52;;;;;;;;;;;;;;;13.03;46.65;96543.00;4185828;28;6645;-66
2022/11/20 14:18:56;;;;;;;;;;;;;;;13.04;46.65;96538.50;4185347;28;5793;-66
2022/11/20 14:21:03;;;;;;;;;;;;;;;13.05;46.26;96540.13;4185305;28;5703;-66
2022/11/20 14:23:11;;;;;;;;;;;;;;;13.05;46.29;96540.13;4186254;28;5817;-66
2022/11/20 14:25:23;;;;;;;;;;;;;;;13.06;46.22;96525.81;4186260;28;5816;-66
2022/11/20 14:27:25;;;;;;;;;;;;;;;13.06;46.22;96520.50;4186285;28;5802;-66
2022/11/20 14:29:34;;;;;;;;;;;;;;;13.02;46.33;96509.53;4186179;28;5695;-66
2022/11/20 14:31:36;;;;;;;;;;;;;;;13.02;46.33;96520.13;4186302;28;5718;-66
2022/11/20 14:33:39;;;;;;;;;;;;;;;13.03;45.99;96515.63;4186373;28;5811;-66
2022/11/20 14:35:46;;;;;;;;;;;;;;;13.06;46.17;96521.31;4186117;28;5715;-66
2022/11/20 14:37:49;;;;;;;;;;;;;;;13.05;45.98;96510.94;4186351;28;5731;-66
2022/11/20 14:39:55;;;;;;;;;;;;;;;13.05;45.90;96513.59;4186409;28;5180;-66
2022/11/20 14:41:58;;;;;;;;;;;;;;;13.05;46.05;96522.34;4185982;28;6405;-66
2022/11/20 14:44:02;;;;;;;;;;;;;;;13.06;45.81;96520.50;4186350;28;5880;-66
2022/11/20 14:46:08;;;;;;;;;;;;;;;13.08;45.74;96523.75;4184695;28;5731;-66
2022/11/20 14:48:11;;;;;;;;;;;;;;;13.07;45.79;96514.19;4186237;28;5718;-66
2022/11/20 14:50:19;;;;;;;;;;;;;;;13.08;46.05;96503.34;4186269;28;5889;-66
2022/11/20 14:52:24;;;;;;;;;;;;;;;13.10;45.93;96516.38;4178697;28;5727;-66
2022/11/20 14:54:28;;;;;;;;;;;;;;;13.06;45.73;96505.41;4185941;28;5715;-65
2022/11/20 14:56:32;;;;;;;;;;;;;;;13.07;45.90;96500.91;4185886;28;5833;-65
2022/11/20 14:58:35;;;;;;;;;;;;;;;13.09;46.06;96512.09;4185954;28;5790;-66
2022/11/20 15:00:37;;;;;;;;;;;;;;;13.09;45.89;96493.53;4182958;28;5827;-66
2022/11/20 15:02:42;;;;;;;;;;;;;;;13.11;45.96;96502.09;4180844;28;5813;-65
2022/11/20 15:04:46;;;;;;;;;;;;;;;13.11;45.99;96500.25;4185840;28;5807;-66
2022/11/20 15:06:52;;;;;;;;;;;;;;;13.12;45.96;96498.41;4185818;28;5715;-66
2022/11/20 15:08:54;;;;;;;;;;;;;;;13.13;46.03;96494.72;4186031;28;5807;-65
2022/11/20 15:10:58;;;;;;;;;;;;;;;13.13;45.82;96486.75;4185501;28;5716;-65
2022/11/20 15:13:05;;;;;;;;;;;;;;;13.12;45.99;96490.44;4185786;28;5696;-65
2022/11/20 15:15:20;;;;;;;;;;;;;;;13.12;45.82;96485.13;4185853;28;5723;-66
2022/11/20 15:17:23;;;;;;;;;;;;;;;13.11;45.76;96475.53;4185714;28;5798;-66
2022/11/20 15:19:27;;;;;;;;;;;;;;;13.12;45.68;96479.81;4185786;28;5719;-66
2022/11/20 15:21:30;;;;;;;;;;;;;;;13.12;45.68;96485.13;4185529;28;5805;-66
2022/11/20 15:23:33;;;;;;;;;;;;;;;13.12;45.58;96487.78;4185530;28;5736;-66
2022/11/20 15:25:35;;;;;;;;;;;;;;;13.12;45.98;96490.44;4185446;28;5837;-66
2022/11/20 15:27:38;;;;;;;;;;;;;;;13.11;45.82;96479.00;4185508;28;5727;-67
2022/11/20 15:29:43;;;;;;;;;;;;;;;13.11;45.77;96483.50;4185509;28;5993;-66
2022/11/20 15:31:46;;;;;;;;;;;;;;;13.12;45.57;96477.97;4185529;28;5898;-66
2022/11/20 15:33:48;;;;;;;;;;;;;;;13.11;45.85;96480.84;4185323;28;5730;-66
2022/11/20 15:35:51;;;;;;;;;;;;;;;13.06;45.61;96486.81;4184979;28;5722;-64
2022/11/20 15:37:54;;;;;;;;;;;;;;;13.06;45.47;96481.50;4185521;28;6283;-66
2022/11/20 15:39:57;;;;;;;;;;;;;;;13.06;45.62;96484.16;4185468;28;5826;-66
2022/11/20 15:42:00;;;;;;;;;;;;;;;13.06;45.52;96470.91;4185079;28;5797;-66
2022/11/20 15:44:03;;;;;;;;;;;;;;;13.05;45.79;96471.13;4185293;28;5714;-66
2022/11/20 15:46:12;;;;;;;;;;;;;;;13.05;45.42;96479.09;4185258;28;5900;-67
2022/11/20 15:48:17;;;;;;;;;;;;;;;13.02;45.72;96474.19;4185221;28;5732;-66
2022/11/20 15:50:21;;;;;;;;;;;;;;;13.00;45.38;96473.59;4185127;28;5726;-65
2022/11/20 15:52:24;;;;;;;;;;;;;;;13.00;45.76;96462.97;4185166;28;5711;-65
2022/11/20 15:54:26;;;;;;;;;;;;;;;13.00;45.73;96474.41;4183314;28;5736;-66
2022/11/20 15:56:29;;;;;;;;;;;;;;;13.01;45.37;96467.25;4183260;28;5714;-66
2022/11/20 15:58:32;;;;;;;;;;;;;;;12.99;45.62;96464.00;4178788;28;5724;-65
2022/11/20 16:00:35;;;;;;;;;;;;;;;12.97;45.78;96474.03;4179796;28;5736;-65
2022/11/20 16:02:39;;;;;;;;;;;;;;;12.99;45.44;96482.59;4184718;28;5706;-65
2022/11/20 16:04:42;;;;;;;;;;;;;;;12.98;45.33;96486.28;4184767;28;5715;-65
2022/11/20 16:06:45;;;;;;;;;;;;;;;12.99;45.46;96478.09;4184858;28;5714;-65
2022/11/20 16:08:48;;;;;;;;;;;;;;;12.96;45.58;96490.97;4184699;28;5763;-66
2022/11/20 16:10:50;;;;;;;;;;;;;;;12.93;45.57;96494.88;4184660;28;5719;-66
2022/11/20 16:17:43;;;;;;;;;;;;;;;12.96;45.33;96504.25;4184628;28;5942;-66
2022/11/20 16:19:47;;;;;;;;;;;;;;;12.98;45.56;96504.84;4184687;28;6405;-66
2022/11/20 16:21:51;;;;;;;;;;;;;;;12.99;45.79;96509.13;4184319;28;5704;-66
2022/11/20 16:23:53;;;;;;;;;;;;;;;12.99;45.55;96511.78;4184453;28;5703;-66
2022/11/20 16:25:57;;;;;;;;;;;;;;;12.99;45.82;96512.59;4183291;28;5786;-66
2022/11/20 16:28:00;;;;;;;;;;;;;;;12.96;45.70;96513.03;4181608;28;5707;-66
2022/11/20 16:30:03;;;;;;;;;;;;;;;12.97;45.52;96511.19;4182212;28;5812;-66
2022/11/20 16:32:06;;;;;;;;;;;;;;;13.02;45.63;96519.28;4182131;28;5813;-66
2022/11/20 16:34:09;;;;;;;;;;;;;;;13.00;45.60;96500.13;4183941;28;5823;-66
2022/11/20 16:36:16;;;;;;;;;;;;;;;12.96;45.47;96502.41;4183978;28;5783;-66
2022/11/20 16:38:18;;;;;;;;;;;;;;;12.93;45.54;96504.69;4176300;28;5698;-66
2022/11/20 16:40:21;;;;;;;;;;;;;;;12.91;45.62;96501.41;4183864;28;5751;-66
2022/11/20 16:42:24;;;;;;;;;;;;;;;12.86;45.45;96510.03;4183914;28;5735;-66
2022/11/20 16:44:27;;;;;;;;;;;;;;;12.88;45.87;96507.16;4179812;28;5778;-66
2022/11/20 16:46:32;;;;;;;;;;;;;;;12.89;45.71;96511.44;4184203;28;5813;-66
2022/11/20 16:48:35;;;;;;;;;;;;;;;12.91;45.98;96520.81;4184224;28;5718;-66
2022/11/20 16:50:37;;;;;;;;;;;;;;;12.89;45.55;96525.50;4184133;28;5711;-65
2022/11/20 16:52:41;;;;;;;;;;;;;;;12.92;45.83;96529.59;4184101;28;5740;-66
2022/11/20 16:54:44;;;;;;;;;;;;;;;12.91;45.79;96527.94;4183966;28;5726;-66
2022/11/20 16:56:47;;;;;;;;;;;;;;;12.89;45.50;96517.53;4183715;28;5735;-65
2022/11/20 16:58:50;;;;;;;;;;;;;;;12.89;45.40;96519.38;4183620;28;5848;-65
2022/11/20 17:00:53;;;;;;;;;;;;;;;12.89;45.56;96528.16;4180687;28;5702;-65
2022/11/20 17:02:56;;;;;;;;;;;;;;;12.89;45.25;96530.81;4184081;28;5954;-65
2022/11/20 17:04:59;;;;;;;;;;;;;;;12.95;45.14;96534.47;4183871;28;5714;-65
2022/11/20 17:07:02;;;;;;;;;;;;;;;12.96;45.20;96544.06;4173795;28;5797;-65
2022/11/20 17:09:11;;;;;;;;;;;;;;;12.94;45.18;96546.09;4183930;28;5881;-65
2022/11/20 17:11:16;;;;;;;;;;;;;;;12.96;45.33;96554.66;4183495;28;5840;-65
2022/11/20 17:13:19;;;;;;;;;;;;;;;12.92;45.80;96572.03;4183821;28;5719;-65
2022/11/20 17:15:22;;;;;;;;;;;;;;;12.92;45.68;96566.75;4183501;28;5731;-65
2022/11/20 17:17:25;;;;;;;;;;;;;;;12.94;45.77;96575.28;4183706;28;5708;-65
2022/11/20 17:19:27;;;;;;;;;;;;;;;12.90;45.83;96582.84;4183747;28;5758;-65
2022/11/20 17:21:31;;;;;;;;;;;;;;;12.90;45.99;96580.19;4189730;28;5840;-66
2022/11/20 17:23:35;;;;;;;;;;;;;;;12.89;45.93;96589.19;4183967;28;6082;-66
2022/11/20 17:25:39;;;;;;;;;;;;;;;12.86;45.78;96586.16;4193192;28;5797;-65
2022/11/20 17:27:42;;;;;;;;;;;;;;;12.84;46.17;96583.72;4177010;28;5715;-65
2022/11/20 17:29:45;;;;;;;;;;;;;;;12.83;46.04;96582.91;4176075;28;5869;-65
2022/11/20 17:31:48;;;;;;;;;;;;;;;12.85;46.03;96593.28;4179855;28;5785;-66
2022/11/20 17:33:52;;;;;;;;;;;;;;;12.90;46.16;96600.59;4179960;28;5878;-65
2022/11/20 17:35:55;;;;;;;;;;;;;;;12.90;46.15;96596.13;4175212;28;5708;-65
2022/11/20 17:37:58;;;;;;;;;;;;;;;12.86;46.31;96597.56;4182018;28;5131;-66
2022/11/20 17:40:01;;;;;;;;;;;;;;;12.83;46.33;96587.41;4183640;28;5802;-65
2022/11/20 17:44:25;;;;;;;;;;;;;;;12.77;46.62;96581.06;4182575;28;5718;-65
2022/11/20 17:46:32;;;;;;;;;;;;;;;12.80;46.54;96583.34;4178888;28;5097;-66
2022/11/20 17:48:35;;;;;;;;;;;;;;;12.85;46.20;96581.88;4186899;28;5707;-66
2022/11/20 17:50:38;;;;;;;;;;;;;;;12.87;46.34;96595.72;4186988;28;5781;-65
2022/11/20 17:52:41;;;;;;;;;;;;;;;12.85;46.45;96592.47;4186906;28;5711;-66
2022/11/20 17:54:44;;;;;;;;;;;;;;;12.83;46.57;96608.63;4184057;28;5080;-65
2022/11/20 17:59:10;;;;;;;;;;;;;;;12.78;46.39;96638.41;4186851;28;5897;-65
2022/11/20 18:01:13;;;;;;;;;;;;;;;12.72;46.81;96620.69;4179715;28;6007;-66
2022/11/20 18:03:16;;;;;;;;;;;;;;;12.75;46.76;96624.75;4185439;28;6434;-67
2022/11/20 18:05:19;;;;;;;;;;;;;;;12.74;46.46;96620.47;4177842;28;5790;-66
2022/11/20 18:07:22;;;;;;;;;;;;;;;12.74;46.43;96634.56;4175774;28;5842;-66
2022/11/20 18:09:25;;;;;;;;;;;;;;;12.68;46.49;96635.38;4182167;28;5830;-65
2022/11/20 18:11:29;;;;;;;;;;;;;;;12.63;46.49;96631.75;4183265;28;5842;-66
2022/11/20 18:14:25;;;;;;;;;;;;;;;12.55;46.87;96656.66;4178711;28;7694;-66
2022/11/20 18:16:07;;;;;;;;;;;;;;;12.53;46.93;96648.09;4184354;28;5807;-65
2022/11/20 18:18:10;;;;;;;;;;;;;;;12.51;46.97;96666.06;4186601;28;6513;-65
2022/11/20 18:20:12;;;;;;;;;;;;;;;12.46;46.70;96664.03;4181323;28;5801;-65
2022/11/20 18:22:35;;;;;;;;;;;;;;;12.33;46.90;96661.41;4182651;28;6483;-65
2022/11/20 18:24:39;;;;;;;;;;;;;;;12.18;46.89;96656.34;4186092;28;5728;-65
2022/11/20 18:26:42;;;;;;;;;;;;;;;12.13;47.30;96658.81;4182170;28;5698;-66
2022/11/20 18:28:47;;;;;;;;;;;;;;;12.13;47.46;96666.75;4178232;28;5862;-66
2022/11/20 18:30:50;;;;;;;;;;;;;;;12.19;47.47;96665.91;4183747;28;5734;-66
2022/11/20 18:32:54;;;;;;;;;;;;;;;12.21;47.23;96668.34;4176388;28;5880;-66
2022/11/20 18:34:57;;;;;;;;;;;;;;;12.20;47.38;96666.72;4182355;28;5753;-66
2022/11/20 18:37:00;;;;;;;;;;;;;;;12.16;47.57;96647.78;4184070;28;5747;-66
2022/11/20 18:39:03;;;;;;;;;;;;;;;12.15;47.73;96662.06;4177130;28;5769;-68
2022/11/20 18:41:06;;;;;;;;;;;;;;;12.06;47.38;96657.16;4178473;28;5850;-67
2022/11/20 18:45:31;;;;;;;;;;;;;;;12.00;47.94;96660.63;4178239;28;5933;-66
2022/11/20 18:47:36;;;;;;;;;;;;;;;11.99;47.54;96657.16;4183957;28;5857;-66
2022/11/20 18:49:41;;;;;;;;;;;;;;;12.00;47.78;96656.13;4180788;28;5926;-66
2022/11/20 18:51:44;;;;;;;;;;;;;;;11.98;47.62;96658.19;4182634;28;5715;-66
2022/11/20 18:53:47;;;;;;;;;;;;;;;12.04;47.92;96659.22;4183430;28;5878;-66
2022/11/20 18:55:50;;;;;;;;;;;;;;;12.11;47.44;96654.69;4177262;28;5744;-65
2022/11/20 18:57:53;;;;;;;;;;;;;;;12.10;47.26;96643.28;4180008;28;5801;-65
2022/11/20 18:59:59;;;;;;;;;;;;;;;12.02;47.31;96646.19;4188916;28;5690;-65
2022/11/20 19:02:11;;;;;;;;;;;;;;;11.99;47.40;96651.06;4181312;28;5736;-65
2022/11/20 19:04:16;;;;;;;;;;;;;;;11.99;47.38;96659.81;4186924;28;5708;-65
2022/11/20 19:06:20;;;;;;;;;;;;;;;11.99;47.76;96659.00;4185003;28;5770;-65
2022/11/20 19:08:23;;;;;;;;;;;;;;;12.03;47.56;96663.69;4183390;28;5714;-65
2022/11/20 19:10:26;;;;;;;;;;;;;;;12.05;47.73;96661.66;4182692;28;5759;-65
2022/11/20 19:12:29;;;;;;;;;;;;;;;12.06;47.74;96663.28;4181228;28;5767;-65
2022/11/20 19:14:35;;;;;;;;;;;;;;;12.00;47.95;96653.50;4184441;28;5925;-65
2022/11/20 19:16:38;;;;;;;;;;;;;;;12.04;47.90;96651.25;4174696;28;5760;-69
2022/11/20 19:18:42;;;;;;;;;;;;;;;12.07;47.90;96654.31;4180151;28;5826;-70
2022/11/20 19:20:45;;;;;;;;;;;;;;;12.12;47.95;96654.53;4184647;28;5888;-69
2022/11/20 19:22:52;;;;;;;;;;;;;;;12.10;47.74;96656.53;4181816;28;5719;-71
2022/11/20 19:24:55;;;;;;;;;;;;;;;12.10;47.66;96648.59;4182659;28;5695;-72
2022/11/20 19:26:57;;;;;;;;;;;;;;;12.12;47.97;96653.72;4180349;28;5708;-70
2022/11/20 19:29:00;;;;;;;;;;;;;;;12.12;47.77;96670.44;4182464;28;5174;-68
2022/11/20 19:31:04;;;;;;;;;;;;;;;12.13;48.03;96660.63;4190888;28;7687;-69
2022/11/20 19:33:06;;;;;;;;;;;;;;;12.13;48.26;96668.59;4183217;28;5834;-68
2022/11/20 19:35:09;;;;;;;;;;;;;;;12.13;48.13;96664.09;4184420;28;5581;-68
2022/11/20 19:37:12;;;;;;;;;;;;;;;12.09;48.27;96665.50;4184283;28;7975;-66
2022/11/20 19:39:16;;;;;;;;;;;;;;;12.05;48.61;96676.75;4185026;28;5770;-67
2022/11/20 19:41:21;;;;;;;;;;;;;;;12.07;48.67;96677.34;4176713;28;5707;-64
2022/11/20 19:43:23;;;;;;;;;;;;;;;12.13;48.29;96680.00;4179702;28;5846;-77
2022/11/20 19:45:26;;;;;;;;;;;;;;;12.18;48.61;96682.84;4182118;28;5786;-72
2022/11/20 19:47:29;;;;;;;;;;;;;;;12.18;48.39;96682.84;4177559;28;5833;-72
2022/11/20 19:49:52;;;;;;;;;;;;;;;12.21;48.86;96697.50;4176296;28;5728;-69
2022/11/20 19:51:55;;;;;;;;;;;;;;;12.24;48.42;96699.75;4184091;28;5681;-73
2022/11/20 19:53:59;;;;;;;;;;;;;;;12.28;48.62;96702.81;4184500;28;5699;-70
2022/11/20 19:56:03;;;;;;;;;;;;;;;12.30;48.92;96700.75;4182868;28;7311;-70
2022/11/20 19:58:06;;;;;;;;;;;;;;;12.24;49.01;96713.84;4185872;28;5344;-65
2022/11/20 20:00:11;;;;;;;;;;;;;;;12.27;48.91;96709.94;4187168;28;7751;-66
2022/11/20 20:02:16;;;;;;;;;;;;;;;12.27;48.97;96703.84;4187686;28;5685;-72
2022/11/20 20:04:19;;;;;;;;;;;;;;;12.24;49.12;96703.22;4180396;28;5743;-70
2022/11/20 20:06:23;;;;;;;;;;;;;;;12.25;49.54;96714.66;4175979;28;5756;-66
2022/11/20 20:08:26;;;;;;;;;;;;;;;12.23;49.54;96714.84;4184178;28;5685;-65
2022/11/20 20:10:29;;;;;;;;;;;;;;;12.23;49.70;96717.50;4181025;28;5811;-65
2022/11/20 20:12:33;;;;;;;;;;;;;;;12.27;49.43;96719.72;4184090;28;5719;-76
2022/11/20 20:14:36;;;;;;;;;;;;;;;12.27;49.78;96719.72;4181904;28;5885;-75
2022/11/20 20:16:39;;;;;;;;;;;;;;;12.28;49.48;96714.22;4182567;28;5810;-77
2022/11/20 20:18:42;;;;;;;;;;;;;;;12.29;49.63;96715.03;4182113;28;5727;-74
2022/11/20 20:20:45;;;;;;;;;;;;;;;12.31;49.71;96718.28;4185955;28;5980;-73
2022/11/20 20:22:48;;;;;;;;;;;;;;;12.31;49.82;96726.25;4192382;28;5814;-65
2022/11/20 20:24:51;;;;;;;;;;;;;;;12.29;50.09;96730.94;4183461;28;5719;-65
2022/11/20 20:26:54;;;;;;;;;;;;;;;12.24;49.92;96732.38;4180737;28;5723;-65
2022/11/20 20:29:01;;;;;;;;;;;;;;;12.25;50.14;96735.84;4183520;28;5779;-70
2022/11/20 20:31:06;;;;;;;;;;;;;;;12.27;49.86;96746.25;4182490;28;5706;-67
2022/11/20 20:33:09;;;;;;;;;;;;;;;12.25;50.44;96749.09;4171910;28;5740;-67
2022/11/20 20:35:12;;;;;;;;;;;;;;;12.26;50.46;96757.88;4180570;28;5738;-66
2022/11/20 20:37:15;;;;;;;;;;;;;;;12.26;50.27;96769.28;4179969;28;5068;-66
2022/11/20 20:39:18;;;;;;;;;;;;;;;12.25;50.29;96770.31;4183866;28;5705;-66
2022/11/20 20:41:25;;;;;;;;;;;;;;;12.17;50.70;96766.00;4177992;28;5865;-66
2022/11/20 20:43:28;;;;;;;;;;;;;;;12.18;50.77;96772.13;4174025;28;5711;-66
2022/11/20 20:45:31;;;;;;;;;;;;;;;12.18;50.91;96783.53;4179999;28;5718;-67
2022/11/20 20:47:35;;;;;;;;;;;;;;;12.18;50.88;96774.78;4180138;28;5801;-68
2022/11/20 20:49:42;;;;;;;;;;;;;;;12.15;51.10;96778.66;4181986;28;5711;-68
2022/11/20 20:51:44;;;;;;;;;;;;;;;12.15;50.82;96783.13;4173144;28;5682;-68
2022/11/20 20:53:48;;;;;;;;;;;;;;;12.20;51.37;96800.06;4181879;28;5711;-70
2022/11/20 20:55:55;;;;;;;;;;;;;;;12.22;50.99;96794.53;4183796;28;5169;-68
2022/11/20 20:57:58;;;;;;;;;;;;;;;12.18;50.97;96798.63;4183067;28;5723;-68
2022/11/20 21:00:00;;;;;;;;;;;;;;;12.15;51.14;96805.16;4179968;28;5718;-69